createdAt,value
2023-04-18T00:00:44.490Z,8.22
2023-04-18T00:03:30.311Z,8.25
2023-04-18T00:06:16.136Z,8.22
2023-04-18T00:09:02.008Z,8.23
2023-04-18T00:11:47.689Z,8.22
2023-04-18T00:14:35.214Z,8.15
2023-04-18T00:17:21.088Z,8.09
2023-04-18T00:20:10.533Z,7.95
2023-04-18T00:22:55.994Z,7.87
2023-04-18T00:25:41.512Z,7.98
2023-04-18T00:28:27.520Z,7.99
2023-04-18T00:31:13.462Z,7.94
2023-04-18T00:33:58.726Z,7.96
2023-04-18T00:36:44.189Z,7.92
2023-04-18T00:39:29.505Z,7.87
2023-04-18T00:42:15.346Z,7.89
2023-04-18T00:45:01.218Z,7.91
2023-04-18T00:47:46.447Z,7.88
2023-04-18T00:50:32.381Z,7.96
2023-04-18T00:53:17.719Z,7.94
2023-04-18T00:56:04.596Z,7.99
2023-04-18T00:58:50.074Z,7.95
2023-04-18T01:01:35.406Z,7.93
2023-04-18T01:04:20.974Z,7.96
2023-04-18T01:07:06.966Z,8.02
2023-04-18T01:09:53.919Z,7.82
2023-04-18T01:12:39.544Z,7.89
2023-04-18T01:15:24.846Z,7.86
2023-04-18T01:18:11.664Z,7.78
2023-04-18T01:21:00.314Z,7.81
2023-04-18T01:23:51.140Z,7.78
2023-04-18T01:26:36.455Z,7.87
2023-04-18T01:29:22.292Z,7.77
2023-04-18T01:32:07.970Z,7.72
2023-04-18T01:34:53.231Z,7.69
2023-04-18T01:37:38.738Z,7.66
2023-04-18T01:40:24.366Z,7.63
2023-04-18T01:43:09.612Z,7.59
2023-04-18T01:45:55.335Z,7.44
2023-04-18T01:48:40.848Z,7.28
2023-04-18T01:51:28.191Z,7.22
2023-04-18T01:54:13.744Z,7.22
2023-04-18T01:56:59.302Z,7.11
2023-04-18T01:59:44.615Z,7.09
2023-04-18T02:02:30.390Z,7.07
2023-04-18T02:05:16.443Z,6.97
2023-04-18T02:08:01.876Z,6.92
2023-04-18T02:10:47.344Z,6.86
2023-04-18T02:13:32.970Z,6.81
2023-04-18T02:16:18.488Z,6.76
2023-04-18T02:19:04.364Z,6.76
2023-04-18T02:21:50.031Z,6.79
2023-04-18T02:24:35.429Z,6.83
2023-04-18T02:27:20.873Z,6.90
2023-04-18T02:30:07.225Z,6.95
2023-04-18T02:32:53.964Z,7.06
2023-04-18T02:35:40.553Z,7.18
2023-04-18T02:38:25.670Z,7.17
2023-04-18T02:41:15.118Z,7.13
2023-04-18T02:44:00.677Z,7.12
2023-04-18T02:46:46.034Z,7.15
2023-04-18T02:49:32.320Z,7.16
2023-04-18T02:52:17.593Z,7.11
2023-04-18T02:55:03.225Z,7.16
2023-04-18T02:57:48.616Z,7.00
2023-04-18T03:00:34.510Z,6.99
2023-04-18T03:03:20.271Z,6.92
2023-04-18T03:06:05.941Z,6.96
2023-04-18T03:08:51.664Z,6.88
2023-04-18T03:11:37.433Z,6.92
2023-04-18T03:14:22.895Z,6.88
2023-04-18T03:17:08.600Z,6.84
2023-04-18T03:19:54.223Z,6.87
2023-04-18T03:22:39.533Z,6.74
2023-04-18T03:25:25.039Z,6.68
2023-04-18T03:28:10.356Z,6.64
2023-04-18T03:30:56.022Z,6.59
2023-04-18T03:33:44.044Z,6.54
2023-04-18T03:36:31.287Z,6.60
2023-04-18T03:39:16.984Z,6.42
2023-04-18T03:42:02.736Z,6.24
2023-04-18T03:44:48.316Z,6.25
2023-04-18T03:47:33.965Z,6.24
2023-04-18T03:50:19.393Z,6.08
2023-04-18T03:53:05.464Z,5.91
2023-04-18T03:55:50.967Z,5.81
2023-04-18T03:58:36.912Z,5.81
2023-04-18T04:01:22.424Z,5.79
2023-04-18T04:04:09.357Z,5.67
2023-04-18T04:06:58.245Z,5.61
2023-04-18T04:09:43.903Z,5.50
2023-04-18T04:12:30.077Z,5.47
2023-04-18T04:15:16.923Z,5.47
2023-04-18T04:18:02.688Z,5.40
2023-04-18T04:20:48.354Z,5.34
2023-04-18T04:23:34.176Z,5.30
2023-04-18T04:26:19.774Z,5.33
2023-04-18T04:29:05.336Z,5.31
2023-04-18T04:31:51.080Z,5.30
2023-04-18T04:34:36.812Z,5.30
2023-04-18T04:37:22.243Z,5.27
2023-04-18T04:40:09.209Z,5.29
2023-04-18T04:42:56.093Z,5.32
2023-04-18T04:45:42.174Z,5.26
2023-04-18T04:48:27.460Z,5.29
2023-04-18T04:51:13.023Z,5.40
2023-04-18T04:53:58.604Z,5.40
2023-04-18T04:56:44.005Z,5.36
2023-04-18T04:59:29.433Z,5.51
2023-04-18T05:02:15.113Z,5.46
2023-04-18T05:05:00.892Z,5.56
2023-04-18T05:07:46.401Z,5.56
2023-04-18T05:10:32.460Z,5.58
2023-04-18T05:13:17.926Z,5.60
2023-04-18T05:16:03.643Z,5.66
2023-04-18T05:18:48.919Z,5.70
2023-04-18T05:21:34.431Z,5.79
2023-04-18T05:24:19.617Z,5.85
2023-04-18T05:27:06.127Z,5.83
2023-04-18T05:29:51.652Z,5.89
2023-04-18T05:32:38.840Z,5.93
2023-04-18T05:35:24.590Z,5.99
2023-04-18T05:38:09.873Z,6.15
2023-04-18T05:40:55.965Z,6.14
2023-04-18T05:43:42.982Z,6.21
2023-04-18T05:46:30.116Z,6.59
2023-04-18T05:49:15.530Z,7.51
2023-04-18T05:52:01.145Z,8.40
2023-04-18T05:54:46.372Z,9.06
2023-04-18T05:57:32.204Z,9.55
2023-04-18T06:00:18.671Z,9.37
2023-04-18T06:03:04.292Z,9.57
2023-04-18T06:05:49.816Z,9.67
2023-04-18T06:08:35.493Z,10.32
2023-04-18T06:11:21.527Z,10.20
2023-04-18T06:14:07.655Z,10.51
2023-04-18T06:16:53.218Z,10.92
2023-04-18T06:19:39.491Z,11.11
2023-04-18T06:22:24.912Z,11.52
2023-04-18T06:25:10.588Z,11.88
2023-04-18T06:27:55.996Z,12.95
2023-04-18T06:30:41.846Z,13.49
2023-04-18T06:33:27.251Z,13.24
2023-04-18T06:36:12.790Z,13.93
2023-04-18T06:38:58.488Z,14.31
2023-04-18T06:41:43.770Z,14.94
2023-04-18T06:44:29.497Z,14.76
2023-04-18T06:47:15.780Z,14.94
2023-04-18T06:50:01.192Z,15.03
2023-04-18T06:52:47.146Z,15.43
2023-04-18T06:55:32.547Z,15.31
2023-04-18T06:58:18.098Z,15.70
2023-04-18T07:03:40.811Z,14.88
2023-04-18T07:06:26.713Z,14.81
2023-04-18T07:09:12.169Z,15.51
2023-04-18T07:11:57.376Z,16.05
2023-04-18T07:14:42.781Z,16.15
2023-04-18T07:17:28.601Z,17.10
2023-04-18T07:20:14.418Z,17.68
2023-04-18T07:23:00.320Z,17.89
2023-04-18T07:25:45.910Z,18.43
2023-04-18T07:28:32.143Z,18.81
2023-04-18T07:31:19.585Z,19.36
2023-04-18T07:34:05.629Z,20.13
2023-04-18T07:36:51.270Z,19.08
2023-04-18T07:39:37.145Z,19.28
2023-04-18T07:42:22.550Z,20.08
2023-04-18T07:45:08.274Z,20.77
2023-04-18T07:47:53.974Z,20.29
2023-04-18T07:50:39.364Z,20.81
2023-04-18T07:53:25.068Z,21.44
2023-04-18T07:56:12.386Z,19.68
2023-04-18T07:58:57.812Z,20.78
2023-04-18T08:01:43.297Z,20.16
2023-04-18T08:04:30.392Z,18.96
2023-04-18T08:07:16.990Z,19.94
2023-04-18T08:10:02.702Z,21.08
2023-04-18T08:12:48.197Z,21.36
2023-04-18T08:15:33.773Z,20.85
2023-04-18T08:18:19.943Z,22.33
2023-04-18T08:21:05.510Z,23.83
2023-04-18T08:23:51.077Z,23.20
2023-04-18T08:26:36.486Z,23.48
2023-04-18T08:29:21.944Z,21.79
2023-04-18T08:32:07.939Z,20.01
2023-04-18T08:34:53.487Z,17.00
2023-04-18T08:37:39.245Z,15.93
2023-04-18T08:40:24.594Z,14.66
2023-04-18T08:43:13.985Z,13.73
2023-04-18T08:46:00.790Z,13.63
2023-04-18T08:48:49.407Z,13.31
2023-04-18T08:51:36.314Z,13.16
2023-04-18T08:54:22.422Z,12.88
2023-04-18T08:57:08.707Z,12.66
2023-04-18T08:59:55.301Z,12.53
2023-04-18T09:02:45.045Z,12.67
2023-04-18T09:05:30.778Z,12.49
2023-04-18T09:08:26.175Z,12.61
2023-04-18T09:11:21.055Z,12.50
2023-04-18T09:14:07.739Z,12.82
2023-04-18T09:16:53.255Z,13.05
2023-04-18T09:19:46.311Z,13.26
2023-04-18T09:26:39.337Z,14.75
2023-04-18T09:29:42.017Z,16.19
2023-04-18T09:32:30.678Z,16.89
2023-04-18T09:35:25.253Z,16.89
2023-04-18T09:38:10.668Z,17.99
2023-04-18T09:41:10.457Z,18.26
2023-04-18T09:44:17.726Z,17.51
2023-04-18T09:47:03.560Z,16.60
2023-04-18T09:49:48.873Z,16.64
2023-04-18T09:52:36.359Z,15.84
2023-04-18T09:55:22.007Z,15.60
2023-04-18T09:58:08.781Z,15.05
2023-04-18T10:00:56.026Z,14.94
2023-04-18T10:03:47.014Z,14.76
2023-04-18T10:06:34.420Z,15.03
2023-04-18T10:09:21.731Z,14.94
2023-04-18T10:12:07.648Z,15.13
2023-04-18T10:14:54.063Z,15.69
2023-04-18T10:18:03.328Z,16.46
2023-04-18T10:20:51.621Z,16.71
2023-04-18T10:23:40.448Z,16.67
2023-04-18T10:26:46.774Z,16.69
2023-04-18T10:29:53.733Z,17.16
2023-04-18T10:32:39.823Z,16.97
2023-04-18T10:35:26.270Z,16.64
2023-04-18T10:38:16.678Z,16.60
2023-04-18T10:41:27.827Z,16.23
2023-04-18T10:44:18.247Z,16.09
2023-04-18T10:47:06.729Z,16.81
2023-04-18T10:49:57.054Z,17.22
2023-04-18T10:52:43.313Z,17.95
2023-04-18T10:55:30.848Z,18.83
2023-04-18T10:58:16.863Z,19.82
2023-04-18T11:01:03.569Z,19.90
2023-04-18T11:03:49.358Z,18.45
2023-04-18T11:06:49.706Z,16.93
2023-04-18T11:09:35.027Z,17.06
2023-04-18T11:12:20.771Z,17.12
2023-04-18T11:15:17.636Z,19.38
2023-04-18T11:18:04.112Z,20.91
2023-04-18T11:20:51.142Z,20.21
2023-04-18T11:23:36.910Z,19.33
2023-04-18T11:26:26.958Z,19.93
2023-04-18T11:29:12.562Z,20.66
2023-04-18T11:31:58.785Z,20.99
2023-04-18T11:34:44.530Z,20.96
2023-04-18T11:37:30.604Z,20.74
2023-04-18T11:40:16.527Z,22.39
2023-04-18T11:43:03.423Z,23.60
2023-04-18T11:45:53.524Z,23.72
2023-04-18T11:48:41.193Z,21.77
2023-04-18T11:51:35.727Z,21.63
2023-04-18T11:54:41.807Z,21.51
2023-04-18T11:57:30.221Z,24.41
2023-04-18T12:00:16.106Z,28.22
2023-04-18T12:03:07.864Z,27.81
2023-04-18T12:06:01.134Z,24.05
2023-04-18T12:08:46.914Z,21.41
2023-04-18T12:11:32.492Z,21.25
2023-04-18T12:14:21.866Z,20.26
2023-04-18T12:17:07.124Z,20.32
2023-04-18T12:19:53.790Z,21.13
2023-04-18T12:22:47.424Z,21.11
2023-04-18T12:25:33.429Z,20.46
2023-04-18T12:28:19.886Z,18.79
2023-04-18T12:31:08.282Z,18.55
2023-04-18T12:33:54.379Z,19.00
2023-04-18T12:36:39.706Z,18.79
2023-04-18T12:39:25.958Z,18.50
2023-04-18T12:42:11.761Z,17.95
2023-04-18T12:44:57.082Z,17.27
2023-04-18T12:47:45.313Z,17.14
2023-04-18T12:50:30.762Z,16.95
2023-04-18T12:53:16.229Z,17.03
2023-04-18T12:56:02.358Z,17.18
2023-04-18T12:58:48.004Z,17.27
2023-04-18T13:01:33.449Z,17.25
2023-04-18T13:04:19.423Z,17.52
2023-04-18T13:07:05.202Z,18.15
2023-04-18T13:09:50.888Z,18.68
2023-04-18T13:12:37.225Z,18.42
2023-04-18T13:15:22.679Z,19.24
2023-04-18T13:18:08.427Z,20.82
2023-04-18T13:20:55.901Z,21.94
2023-04-18T13:23:41.412Z,20.91
2023-04-18T13:26:27.179Z,19.39
2023-04-18T13:29:12.972Z,17.87
2023-04-18T13:31:59.674Z,17.07
2023-04-18T13:34:47.235Z,16.85
2023-04-18T13:37:32.912Z,16.86
2023-04-18T13:40:18.297Z,16.68
2023-04-18T13:43:03.610Z,16.65
2023-04-18T13:45:49.092Z,17.09
2023-04-18T13:48:34.726Z,17.51
2023-04-18T13:51:20.271Z,17.59
2023-04-18T13:54:05.815Z,17.80
2023-04-18T13:56:51.484Z,18.34
2023-04-18T13:59:40.134Z,19.65
2023-04-18T14:02:25.903Z,22.38
2023-04-18T14:05:11.583Z,25.44
2023-04-18T14:08:03.713Z,27.87
2023-04-18T14:10:49.418Z,28.35
2023-04-18T14:13:35.199Z,25.52
2023-04-18T14:16:20.840Z,22.52
2023-04-18T14:19:06.471Z,20.24
2023-04-18T14:21:51.723Z,18.95
2023-04-18T14:24:40.264Z,18.35
2023-04-18T14:27:26.125Z,17.51
2023-04-18T14:30:13.065Z,17.28
2023-04-18T14:32:58.671Z,17.33
2023-04-18T14:35:44.126Z,16.93
2023-04-18T14:38:29.382Z,16.63
2023-04-18T14:41:15.214Z,16.43
2023-04-18T14:44:00.824Z,16.28
2023-04-18T14:46:46.367Z,16.17
2023-04-18T14:49:31.890Z,16.08
2023-04-18T14:52:17.355Z,16.03
2023-04-18T14:55:03.165Z,16.02
2023-04-18T14:57:48.776Z,15.83
2023-04-18T15:00:34.134Z,15.75
2023-04-18T15:03:19.658Z,15.81
2023-04-18T15:06:05.545Z,15.77
2023-04-18T15:08:52.568Z,15.82
2023-04-18T15:11:38.213Z,15.81
2023-04-18T15:14:23.467Z,15.66
2023-04-18T15:17:09.087Z,15.59
2023-04-18T15:19:54.463Z,15.62
2023-04-18T15:22:39.878Z,15.65
2023-04-18T15:25:26.100Z,15.63
2023-04-18T15:28:14.665Z,15.55
2023-04-18T15:30:59.971Z,15.44
2023-04-18T15:33:45.614Z,15.45
2023-04-18T15:36:31.736Z,15.52
2023-04-18T15:39:23.349Z,16.06
2023-04-18T15:42:09.177Z,15.88
2023-04-18T15:44:54.604Z,15.38
2023-04-18T15:47:40.761Z,15.14
2023-04-18T15:50:26.471Z,15.12
2023-04-18T15:53:12.037Z,15.16
2023-04-18T15:55:59.831Z,15.24
2023-04-18T15:58:45.590Z,15.35
2023-04-18T16:01:30.959Z,15.25
2023-04-18T16:04:16.477Z,15.37
2023-04-18T16:07:02.057Z,15.51
2023-04-18T16:09:47.788Z,15.53
2023-04-18T16:12:33.188Z,15.49
2023-04-18T16:15:18.594Z,15.45
2023-04-18T16:18:04.300Z,15.31
2023-04-18T16:20:49.749Z,15.20
2023-04-18T16:23:35.263Z,15.09
2023-04-18T16:26:21.230Z,14.96
2023-04-18T16:29:06.819Z,14.83
2023-04-18T16:31:52.522Z,14.65
2023-04-18T16:34:37.889Z,14.59
2023-04-18T16:37:23.564Z,14.57
2023-04-18T16:40:10.124Z,14.54
2023-04-18T16:42:55.556Z,14.58
2023-04-18T16:45:40.968Z,14.46
2023-04-18T16:48:26.657Z,14.25
2023-04-18T16:51:13.042Z,14.16
2023-04-18T16:53:58.403Z,14.05
2023-04-18T16:56:44.668Z,13.98
2023-04-18T16:59:30.397Z,13.94
2023-04-18T17:02:16.249Z,13.88
2023-04-18T17:05:02.090Z,13.79
2023-04-18T17:07:49.761Z,13.60
2023-04-18T17:10:35.640Z,13.53
2023-04-18T17:13:26.587Z,13.49
2023-04-18T17:16:12.485Z,13.53
2023-04-18T17:18:57.869Z,13.36
2023-04-18T17:21:44.054Z,13.38
2023-04-18T17:24:29.575Z,13.40
2023-04-18T17:27:14.974Z,13.43
2023-04-18T17:30:00.777Z,13.48
2023-04-18T17:32:46.331Z,13.51
2023-04-18T17:35:31.830Z,13.43
2023-04-18T17:38:17.689Z,13.41
2023-04-18T17:41:04.597Z,13.35
2023-04-18T17:43:53.227Z,13.20
2023-04-18T17:46:38.758Z,13.23
2023-04-18T17:49:24.082Z,13.09
2023-04-18T17:52:09.613Z,13.05
2023-04-18T17:54:56.265Z,12.94
2023-04-18T17:57:41.735Z,12.83
2023-04-18T18:00:27.095Z,12.84
2023-04-18T18:03:16.006Z,12.81
2023-04-18T18:06:01.807Z,12.71
2023-04-18T18:08:47.127Z,12.71
2023-04-18T18:11:32.773Z,12.60
2023-04-18T18:14:18.386Z,12.49
2023-04-18T18:17:04.908Z,12.36
2023-04-18T18:19:50.498Z,12.26
2023-04-18T18:22:36.159Z,12.16
2023-04-18T18:25:21.784Z,12.06
2023-04-18T18:28:07.350Z,11.99
2023-04-18T18:30:53.803Z,11.82
2023-04-18T18:33:39.235Z,11.78
2023-04-18T18:36:24.898Z,11.74
2023-04-18T18:39:11.056Z,11.75
2023-04-18T18:41:58.187Z,11.67
2023-04-18T18:44:43.797Z,11.58
2023-04-18T18:47:30.543Z,11.60
2023-04-18T18:50:15.804Z,11.56
2023-04-18T18:53:01.803Z,11.50
2023-04-18T18:55:46.963Z,11.49
2023-04-18T18:58:32.653Z,11.47
2023-04-18T19:01:17.955Z,11.49
2023-04-18T19:04:04.077Z,11.49
2023-04-18T19:06:49.730Z,11.46
2023-04-18T19:09:36.822Z,11.48
2023-04-18T19:12:22.552Z,11.41
2023-04-18T19:15:08.943Z,11.38
2023-04-18T19:17:55.607Z,11.38
2023-04-18T19:20:41.735Z,11.36
2023-04-18T19:23:27.813Z,11.23
2023-04-18T19:26:13.341Z,11.16
2023-04-18T19:28:58.941Z,11.23
2023-04-18T19:31:44.585Z,11.22
2023-04-18T19:34:30.125Z,11.23
2023-04-18T19:37:15.831Z,11.20
2023-04-18T19:40:02.462Z,11.21
2023-04-18T19:42:47.733Z,11.19
2023-04-18T19:45:33.418Z,11.16
2023-04-18T19:48:18.786Z,11.24
2023-04-18T19:51:04.665Z,11.21
2023-04-18T19:53:50.555Z,11.16
2023-04-18T19:56:36.373Z,11.07
2023-04-18T19:59:21.611Z,11.03
2023-04-18T20:02:07.697Z,10.95
2023-04-18T20:04:53.357Z,10.88
2023-04-18T20:07:39.170Z,10.82
2023-04-18T20:10:24.520Z,10.77
2023-04-18T20:13:10.170Z,10.69
2023-04-18T20:15:56.037Z,10.63
2023-04-18T20:18:41.765Z,10.50
2023-04-18T20:21:27.359Z,10.45
2023-04-18T20:24:13.362Z,10.31
2023-04-18T20:26:59.353Z,10.19
2023-04-18T20:29:45.105Z,10.03
2023-04-18T20:32:30.899Z,9.90
2023-04-18T20:35:16.349Z,9.79
2023-04-18T20:38:01.709Z,9.73
2023-04-18T20:40:48.807Z,9.74
2023-04-18T20:43:37.201Z,9.71
2023-04-18T20:46:23.065Z,9.73
2023-04-18T20:49:09.388Z,9.83
2023-04-18T20:51:55.124Z,9.80
2023-04-18T20:54:41.658Z,9.81
2023-04-18T20:57:27.317Z,9.87
2023-04-18T21:00:13.917Z,9.86
2023-04-18T21:02:59.237Z,9.84
2023-04-18T21:05:45.015Z,9.80
2023-04-18T21:08:31.593Z,9.79
2023-04-18T21:11:17.293Z,9.70
2023-04-18T21:14:06.084Z,9.52
2023-04-18T21:16:51.551Z,9.45
2023-04-18T21:19:37.292Z,9.37
2023-04-18T21:22:22.838Z,9.28
2023-04-18T21:25:08.842Z,9.10
2023-04-18T21:27:54.476Z,9.03
2023-04-18T21:30:39.712Z,8.93
2023-04-18T21:33:26.105Z,8.88
2023-04-18T21:36:11.445Z,8.73
2023-04-18T21:38:58.757Z,8.67
2023-04-18T21:41:44.778Z,8.51
2023-04-18T21:44:31.107Z,8.46
2023-04-18T21:47:16.446Z,8.43
2023-04-18T21:50:03.887Z,8.43
2023-04-18T21:52:49.485Z,8.27
2023-04-18T21:55:34.798Z,8.17
2023-04-18T21:58:20.402Z,8.14
2023-04-18T22:01:05.993Z,8.11
2023-04-18T22:03:52.484Z,8.02
2023-04-18T22:06:37.832Z,8.02
2023-04-18T22:09:23.506Z,7.90
2023-04-18T22:12:08.768Z,7.75
2023-04-18T22:14:54.598Z,7.74
2023-04-18T22:17:41.266Z,7.69
2023-04-18T22:20:26.776Z,7.68
2023-04-18T22:23:12.193Z,7.66
2023-04-18T22:25:57.640Z,7.59
2023-04-18T22:28:43.418Z,7.59
2023-04-18T22:31:29.058Z,7.51
2023-04-18T22:34:14.728Z,7.40
2023-04-18T22:37:00.684Z,7.39
2023-04-18T22:39:45.952Z,7.39
2023-04-18T22:42:35.597Z,7.36
2023-04-18T22:45:22.166Z,7.32
2023-04-18T22:48:11.527Z,7.32
2023-04-18T22:50:56.938Z,7.32
2023-04-18T22:53:42.314Z,7.21
2023-04-18T22:56:28.002Z,7.12
2023-04-18T22:59:13.577Z,7.11
2023-04-18T23:01:59.299Z,7.16
2023-04-18T23:04:45.883Z,7.06
2023-04-18T23:07:31.750Z,7.12
2023-04-18T23:10:17.317Z,6.99
2023-04-18T23:13:02.877Z,6.98
2023-04-18T23:15:48.447Z,6.91
2023-04-18T23:18:33.756Z,6.95
2023-04-18T23:21:19.183Z,6.87
2023-04-18T23:24:04.918Z,6.89
2023-04-18T23:26:50.242Z,6.86
2023-04-18T23:29:39.059Z,6.80
2023-04-18T23:32:24.770Z,6.81
2023-04-18T23:35:11.392Z,6.74
2023-04-18T23:37:57.253Z,6.67
2023-04-18T23:40:42.444Z,6.62
2023-04-18T23:43:28.061Z,6.63
2023-04-18T23:46:13.762Z,6.58
2023-04-18T23:48:59.355Z,6.58
2023-04-18T23:51:44.636Z,6.54
2023-04-18T23:54:30.353Z,6.51
2023-04-18T23:57:16.246Z,6.43
